createdAt,value
2023-05-22T00:01:22.813Z,15.40
2023-05-22T00:03:50.883Z,15.20
2023-05-22T00:06:18.619Z,15.10
2023-05-22T00:08:45.710Z,15.00
2023-05-22T00:11:13.122Z,14.90
2023-05-22T00:13:40.254Z,14.80
2023-05-22T00:16:07.922Z,14.60
2023-05-22T00:18:34.965Z,14.50
2023-05-22T00:21:01.991Z,14.50
2023-05-22T00:23:30.159Z,14.50
2023-05-22T00:25:57.378Z,14.50
2023-05-22T00:28:24.411Z,14.60
2023-05-22T00:30:51.487Z,14.60
2023-05-22T00:33:18.531Z,14.60
2023-05-22T00:35:45.749Z,14.60
2023-05-22T00:38:29.680Z,14.60
2023-05-22T00:40:56.962Z,14.50
2023-05-22T00:43:24.015Z,14.40
2023-05-22T00:45:51.104Z,14.40
2023-05-22T00:48:18.398Z,14.30
2023-05-22T00:50:45.855Z,14.30
2023-05-22T00:53:14.410Z,14.30
2023-05-22T00:55:41.870Z,14.30
2023-05-22T00:58:14.009Z,14.30
2023-05-22T01:00:42.357Z,14.40
2023-05-22T01:03:10.229Z,14.40
2023-05-22T01:05:38.188Z,14.40
2023-05-22T01:08:09.604Z,14.30
2023-05-22T01:10:39.248Z,14.30
2023-05-22T01:13:28.984Z,14.30
2023-05-22T01:16:36.341Z,14.30
2023-05-22T01:19:21.643Z,14.30
2023-05-22T01:22:17.981Z,14.30
2023-05-22T01:25:01.070Z,14.30
2023-05-22T01:27:35.418Z,14.30
2023-05-22T01:30:27.797Z,14.30
2023-05-22T01:32:58.347Z,14.20
2023-05-22T01:35:26.727Z,14.10
2023-05-22T01:37:55.910Z,14.10
2023-05-22T01:40:23.868Z,14.10
2023-05-22T01:42:52.165Z,14.20
2023-05-22T01:45:21.247Z,14.10
2023-05-22T01:47:49.125Z,14.10
2023-05-22T01:50:16.367Z,14.10
2023-05-22T01:52:52.600Z,14.10
2023-05-22T01:55:30.936Z,14.10
2023-05-22T01:58:09.329Z,14.10
2023-05-22T02:00:38.794Z,14.10
2023-05-22T02:03:15.377Z,14.10
2023-05-22T02:05:44.140Z,14.00
2023-05-22T02:08:13.385Z,14.00
2023-05-22T02:10:42.497Z,13.90
2023-05-22T02:13:10.179Z,13.90
2023-05-22T02:15:37.420Z,13.90
2023-05-22T02:18:13.135Z,13.90
2023-05-22T02:20:40.866Z,13.80
2023-05-22T02:23:07.993Z,13.70
2023-05-22T02:25:35.025Z,13.70
2023-05-22T02:28:02.044Z,13.70
2023-05-22T02:30:29.109Z,13.80
2023-05-22T02:32:57.602Z,13.70
2023-05-22T02:35:24.874Z,13.70
2023-05-22T02:37:51.904Z,13.70
2023-05-22T02:40:19.003Z,13.60
2023-05-22T02:42:46.117Z,13.60
2023-05-22T02:45:13.231Z,13.40
2023-05-22T02:47:40.278Z,13.40
2023-05-22T02:50:08.088Z,13.20
2023-05-22T02:52:35.381Z,13.20
2023-05-22T02:55:02.878Z,13.10
2023-05-22T02:57:31.699Z,13.10
2023-05-22T02:59:59.321Z,13.00
2023-05-22T03:02:28.530Z,12.90
2023-05-22T03:04:59.209Z,12.80
2023-05-22T03:07:29.974Z,12.70
2023-05-22T03:09:57.258Z,12.60
2023-05-22T03:12:24.637Z,12.50
2023-05-22T03:14:51.861Z,12.50
2023-05-22T03:17:18.908Z,12.50
2023-05-22T03:19:47.064Z,12.50
2023-05-22T03:22:16.452Z,12.40
2023-05-22T03:24:43.546Z,12.30
2023-05-22T03:27:11.779Z,12.20
2023-05-22T03:29:38.920Z,12.10
2023-05-22T03:32:06.228Z,12.10
2023-05-22T03:34:33.644Z,12.00
2023-05-22T03:37:00.927Z,11.90
2023-05-22T03:39:28.070Z,11.90
2023-05-22T03:41:55.093Z,11.90
2023-05-22T03:44:22.159Z,11.90
2023-05-22T03:46:49.469Z,11.90
2023-05-22T03:49:16.617Z,11.90
2023-05-22T03:51:43.598Z,11.90
2023-05-22T03:54:11.027Z,11.90
2023-05-22T03:56:38.123Z,12.00
2023-05-22T03:59:05.180Z,12.10
2023-05-22T04:01:32.238Z,12.10
2023-05-22T04:03:59.261Z,12.20
2023-05-22T04:06:26.805Z,12.20
2023-05-22T04:08:53.896Z,12.30
2023-05-22T04:11:22.348Z,12.50
2023-05-22T04:13:51.191Z,12.60
2023-05-22T04:16:18.434Z,12.70
2023-05-22T04:18:45.715Z,12.80
2023-05-22T04:21:12.942Z,12.90
2023-05-22T04:23:43.419Z,13.00
2023-05-22T04:26:10.592Z,13.10
2023-05-22T04:28:38.437Z,13.20
2023-05-22T04:31:06.710Z,13.30
2023-05-22T04:33:34.739Z,13.40
2023-05-22T04:36:03.239Z,13.60
2023-05-22T04:38:30.520Z,13.70
2023-05-22T04:40:58.447Z,13.90
2023-05-22T04:43:27.243Z,14.00
2023-05-22T04:45:57.402Z,14.20
2023-05-22T04:48:24.418Z,14.30
2023-05-22T04:50:54.428Z,14.40
2023-05-22T04:53:21.529Z,14.50
2023-05-22T04:55:48.505Z,14.70
2023-05-22T04:58:15.650Z,15.20
2023-05-22T05:00:43.038Z,16.00
2023-05-22T05:03:11.918Z,17.00
2023-05-22T05:05:39.053Z,18.10
2023-05-22T05:08:06.291Z,19.20
2023-05-22T05:10:33.322Z,20.00
2023-05-22T05:13:00.620Z,20.90
2023-05-22T05:15:28.327Z,21.70
2023-05-22T05:17:56.094Z,22.50
2023-05-22T05:20:23.223Z,23.00
2023-05-22T05:22:50.211Z,23.40
2023-05-22T05:25:17.405Z,23.90
2023-05-22T05:27:44.560Z,24.40
2023-05-22T05:30:11.813Z,24.80
2023-05-22T05:32:39.015Z,25.10
2023-05-22T05:35:06.493Z,24.70
2023-05-22T05:37:33.725Z,24.90
2023-05-22T05:40:00.806Z,25.30
2023-05-22T05:42:27.839Z,25.40
2023-05-22T05:44:54.851Z,25.70
2023-05-22T05:47:24.257Z,26.00
2023-05-22T05:49:51.337Z,25.20
2023-05-22T05:52:18.464Z,25.20
2023-05-22T05:54:47.668Z,25.00
2023-05-22T05:57:15.431Z,25.40
2023-05-22T05:59:42.491Z,24.80
2023-05-22T06:02:09.982Z,25.50
2023-05-22T06:04:37.127Z,26.30
2023-05-22T06:07:04.238Z,26.40
2023-05-22T06:09:31.425Z,26.60
2023-05-22T06:11:58.442Z,27.30
2023-05-22T06:14:25.641Z,27.10
2023-05-22T06:16:53.913Z,28.00
2023-05-22T06:19:21.159Z,28.60
2023-05-22T06:21:49.778Z,28.50
2023-05-22T06:24:17.998Z,28.80
2023-05-22T06:26:46.149Z,27.70
2023-05-22T06:29:13.257Z,27.40
2023-05-22T06:31:40.470Z,28.00
2023-05-22T06:34:07.786Z,28.60
2023-05-22T06:36:35.005Z,28.80
2023-05-22T06:39:02.930Z,28.60
2023-05-22T06:41:29.950Z,28.30
2023-05-22T06:43:57.018Z,27.80
2023-05-22T06:46:25.920Z,27.80
2023-05-22T06:48:53.305Z,27.80
2023-05-22T06:51:21.385Z,28.50
2023-05-22T06:53:48.402Z,28.90
2023-05-22T06:56:15.652Z,29.30
2023-05-22T06:58:43.038Z,29.60
2023-05-22T07:01:10.181Z,30.30
2023-05-22T07:03:37.229Z,30.50
2023-05-22T07:06:04.402Z,30.40
2023-05-22T07:08:31.460Z,30.20
2023-05-22T07:10:58.473Z,30.20
2023-05-22T07:13:25.579Z,30.80
2023-05-22T07:15:52.621Z,31.20
2023-05-22T07:18:19.650Z,31.40
2023-05-22T07:20:46.705Z,31.60
2023-05-22T07:23:13.732Z,31.90
2023-05-22T07:25:41.252Z,31.90
2023-05-22T07:28:09.488Z,31.80
2023-05-22T07:30:38.694Z,31.30
2023-05-22T07:33:06.482Z,30.90
2023-05-22T07:35:33.646Z,30.90
2023-05-22T07:38:00.895Z,31.00
2023-05-22T07:40:27.964Z,30.70
2023-05-22T07:42:55.048Z,30.40
2023-05-22T07:45:22.148Z,30.40
2023-05-22T07:47:49.185Z,30.70
2023-05-22T07:50:16.399Z,31.20
2023-05-22T07:52:45.145Z,31.50
2023-05-22T07:55:12.186Z,31.10
2023-05-22T07:57:39.291Z,31.30
2023-05-22T08:00:10.169Z,31.60
2023-05-22T08:02:37.248Z,31.40
2023-05-22T08:05:05.212Z,31.60
2023-05-22T08:07:34.894Z,31.70
2023-05-22T08:10:09.079Z,32.00
2023-05-22T08:12:36.127Z,31.90
2023-05-22T08:15:03.812Z,31.80
2023-05-22T08:17:31.242Z,31.70
2023-05-22T08:19:59.492Z,31.70
2023-05-22T08:22:26.532Z,31.90
2023-05-22T08:24:53.521Z,31.90
2023-05-22T08:27:20.595Z,32.20
2023-05-22T08:29:47.646Z,31.90
2023-05-22T08:32:14.645Z,31.70
2023-05-22T08:34:42.176Z,31.90
2023-05-22T08:37:09.658Z,31.80
2023-05-22T08:39:36.776Z,31.40
2023-05-22T08:42:05.048Z,31.10
2023-05-22T08:44:32.289Z,31.30
2023-05-22T08:47:02.038Z,31.20
2023-05-22T08:49:29.496Z,31.30
2023-05-22T08:52:35.175Z,31.30
2023-05-22T08:55:05.628Z,31.20
2023-05-22T08:57:33.568Z,31.00
2023-05-22T09:00:01.237Z,30.90
2023-05-22T09:02:28.818Z,30.30
2023-05-22T09:04:57.571Z,30.30
2023-05-22T09:07:25.522Z,30.30
2023-05-22T09:09:53.422Z,30.30
2023-05-22T09:12:20.529Z,30.50
2023-05-22T09:14:48.070Z,31.00
2023-05-22T09:17:18.212Z,30.10
2023-05-22T09:19:46.173Z,30.40
2023-05-22T09:22:14.665Z,30.50
2023-05-22T09:24:43.628Z,30.40
2023-05-22T09:27:12.130Z,30.30
2023-05-22T09:29:53.812Z,30.50
2023-05-22T09:32:21.198Z,30.30
2023-05-22T09:34:48.366Z,30.40
2023-05-22T09:37:18.851Z,30.60
2023-05-22T09:39:47.639Z,30.80
2023-05-22T09:42:18.813Z,30.30
2023-05-22T09:44:50.098Z,30.60
2023-05-22T09:47:17.891Z,30.50
2023-05-22T09:49:46.373Z,30.50
2023-05-22T09:52:13.499Z,30.80
2023-05-22T09:54:55.380Z,30.70
2023-05-22T09:57:25.490Z,30.80
2023-05-22T09:59:55.245Z,30.70
2023-05-22T10:02:27.017Z,30.40
2023-05-22T10:04:55.074Z,30.30
2023-05-22T10:07:30.677Z,30.40
2023-05-22T10:10:07.353Z,29.70
2023-05-22T10:12:41.994Z,29.90
2023-05-22T10:15:11.154Z,29.90
2023-05-22T10:17:39.733Z,29.40
2023-05-22T10:20:09.266Z,29.90
2023-05-22T10:22:38.226Z,30.10
2023-05-22T10:25:08.569Z,30.20
2023-05-22T10:27:37.672Z,30.10
2023-05-22T10:30:33.086Z,30.00
2023-05-22T10:33:20.461Z,30.00
2023-05-22T10:35:58.126Z,30.10
2023-05-22T10:38:34.344Z,30.00
2023-05-22T10:41:04.662Z,30.20
2023-05-22T10:43:33.009Z,30.60
2023-05-22T10:46:04.680Z,30.50
2023-05-22T10:48:49.925Z,30.00
2023-05-22T10:51:23.653Z,29.90
2023-05-22T10:54:08.674Z,29.70
2023-05-22T10:56:36.492Z,30.00
2023-05-22T10:59:06.159Z,30.10
2023-05-22T11:01:36.464Z,29.80
2023-05-22T11:04:09.428Z,29.80
2023-05-22T11:06:46.092Z,29.90
2023-05-22T11:09:32.616Z,29.90
2023-05-22T11:12:21.539Z,29.80
2023-05-22T11:14:57.395Z,29.60
2023-05-22T11:17:32.616Z,29.40
2023-05-22T11:20:02.732Z,29.50
2023-05-22T11:22:51.381Z,29.60
2023-05-22T11:25:19.734Z,29.80
2023-05-22T11:27:49.834Z,29.60
2023-05-22T11:30:17.803Z,29.70
2023-05-22T11:32:46.418Z,29.60
2023-05-22T11:35:21.058Z,29.80
2023-05-22T11:37:49.570Z,30.20
2023-05-22T11:40:18.718Z,30.50
2023-05-22T11:42:45.772Z,30.70
2023-05-22T11:45:12.875Z,30.80
2023-05-22T11:47:40.263Z,31.00
2023-05-22T11:50:09.982Z,31.20
2023-05-22T11:52:38.373Z,31.30
2023-05-22T11:55:06.148Z,31.10
2023-05-22T11:57:33.356Z,31.10
2023-05-22T12:00:00.887Z,31.00
2023-05-22T12:02:28.492Z,30.90
2023-05-22T12:04:56.175Z,31.10
2023-05-22T12:07:23.807Z,30.80
2023-05-22T12:09:50.867Z,30.90
2023-05-22T12:12:19.454Z,30.70
2023-05-22T12:14:49.442Z,30.70
2023-05-22T12:17:17.838Z,30.50
2023-05-22T12:19:45.374Z,30.70
2023-05-22T12:22:12.849Z,30.80
2023-05-22T12:24:47.389Z,30.90
2023-05-22T12:27:15.562Z,31.00
2023-05-22T12:29:43.518Z,31.00
2023-05-22T12:32:12.150Z,30.90
2023-05-22T12:34:47.085Z,31.20
2023-05-22T12:37:28.365Z,31.20
2023-05-22T12:40:01.897Z,31.20
2023-05-22T12:42:29.276Z,31.40
2023-05-22T12:44:58.372Z,30.60
2023-05-22T12:47:26.065Z,30.20
2023-05-22T12:49:55.822Z,30.00
2023-05-22T12:52:22.810Z,30.00
2023-05-22T12:54:51.025Z,30.40
2023-05-22T12:57:19.278Z,30.70
2023-05-22T12:59:46.494Z,31.10
2023-05-22T13:02:13.573Z,30.90
2023-05-22T13:04:41.932Z,31.30
2023-05-22T13:07:08.989Z,31.80
2023-05-22T13:09:36.183Z,32.20
2023-05-22T13:12:03.281Z,32.00
2023-05-22T13:14:30.339Z,31.60
2023-05-22T13:16:57.495Z,31.40
2023-05-22T13:19:24.677Z,31.50
2023-05-22T13:21:51.882Z,31.30
2023-05-22T13:24:19.983Z,30.50
2023-05-22T13:26:47.428Z,29.80
2023-05-22T13:29:15.305Z,29.50
2023-05-22T13:31:42.411Z,29.40
2023-05-22T13:34:09.687Z,29.40
2023-05-22T13:36:37.064Z,29.40
2023-05-22T13:39:04.170Z,30.00
2023-05-22T13:41:31.278Z,30.80
2023-05-22T13:43:58.384Z,31.40
2023-05-22T13:46:25.479Z,31.90
2023-05-22T13:48:52.517Z,32.00
2023-05-22T13:51:19.715Z,32.10
2023-05-22T13:53:46.731Z,32.10
2023-05-22T13:56:13.759Z,32.10
2023-05-22T13:58:40.849Z,32.20
2023-05-22T14:01:08.084Z,32.10
2023-05-22T14:03:35.379Z,32.00
2023-05-22T14:06:02.607Z,32.00
2023-05-22T14:08:29.667Z,31.80
2023-05-22T14:10:56.749Z,31.80
2023-05-22T14:13:23.768Z,31.40
2023-05-22T14:15:50.928Z,31.00
2023-05-22T14:18:18.070Z,30.40
2023-05-22T14:20:46.009Z,29.70
2023-05-22T14:23:15.115Z,28.90
2023-05-22T14:25:44.034Z,28.50
2023-05-22T14:28:16.586Z,28.40
2023-05-22T14:30:44.126Z,28.30
2023-05-22T14:33:12.622Z,28.20
2023-05-22T14:35:41.181Z,28.20
2023-05-22T14:38:08.511Z,28.20
2023-05-22T14:40:35.696Z,28.20
2023-05-22T14:43:02.719Z,28.10
2023-05-22T14:45:29.754Z,28.10
2023-05-22T14:47:57.226Z,27.90
2023-05-22T14:50:24.323Z,27.80
2023-05-22T14:52:51.726Z,27.60
2023-05-22T14:55:18.861Z,27.40
2023-05-22T14:57:45.921Z,27.40
2023-05-22T15:00:14.304Z,27.30
2023-05-22T15:02:41.563Z,27.10
2023-05-22T15:05:09.796Z,26.90
2023-05-22T15:10:08.839Z,26.80
2023-05-22T15:12:35.929Z,26.60
2023-05-22T15:15:03.065Z,26.50
2023-05-22T15:17:30.517Z,26.40
2023-05-22T15:19:57.577Z,26.20
2023-05-22T15:22:24.841Z,26.20
2023-05-22T15:25:07.542Z,26.10
2023-05-22T15:27:35.624Z,25.70
2023-05-22T15:30:04.347Z,24.90
2023-05-22T15:32:34.849Z,24.30
2023-05-22T15:35:01.870Z,23.80
2023-05-22T15:37:34.217Z,23.20
2023-05-22T15:40:02.488Z,22.90
2023-05-22T15:42:30.320Z,22.50
2023-05-22T15:44:59.221Z,22.30
2023-05-22T15:47:26.448Z,22.00
2023-05-22T15:49:53.469Z,21.40
2023-05-22T15:52:23.586Z,21.10
2023-05-22T15:54:50.826Z,20.70
2023-05-22T15:57:17.940Z,20.20
2023-05-22T15:59:47.520Z,19.80
2023-05-22T16:02:14.931Z,19.50
2023-05-22T16:04:42.477Z,19.20
2023-05-22T16:07:09.577Z,18.90
2023-05-22T16:09:36.600Z,18.80
2023-05-22T16:12:04.441Z,18.70
2023-05-22T16:14:32.031Z,18.70
2023-05-22T16:16:59.084Z,18.70
2023-05-22T16:19:28.341Z,18.70
2023-05-22T16:21:55.616Z,18.70
2023-05-22T16:24:22.685Z,18.80
2023-05-22T16:26:49.649Z,18.80
2023-05-22T16:29:22.031Z,19.00
2023-05-22T16:31:49.461Z,19.00
2023-05-22T16:34:16.596Z,19.20
2023-05-22T16:36:44.094Z,19.30
2023-05-22T16:39:11.831Z,19.40
2023-05-22T16:41:38.933Z,19.60
2023-05-22T16:44:06.034Z,19.70
2023-05-22T16:46:33.236Z,19.80
2023-05-22T16:49:00.294Z,19.80
2023-05-22T16:51:27.688Z,19.90
2023-05-22T16:53:54.709Z,19.90
2023-05-22T16:56:22.836Z,19.90
2023-05-22T16:58:49.884Z,20.00
2023-05-22T17:01:16.984Z,20.10
2023-05-22T17:03:45.236Z,20.20
2023-05-22T17:06:12.285Z,20.20
2023-05-22T17:08:40.811Z,20.20
2023-05-22T17:11:07.907Z,20.10
2023-05-22T17:13:34.940Z,20.00
2023-05-22T17:16:01.990Z,19.80
2023-05-22T17:18:29.029Z,19.70
2023-05-22T17:20:56.214Z,19.70
2023-05-22T17:23:23.321Z,19.70
2023-05-22T17:25:50.889Z,19.70
2023-05-22T17:28:18.049Z,19.70
2023-05-22T17:30:46.202Z,19.80
2023-05-22T17:33:14.235Z,19.80
2023-05-22T17:35:42.127Z,19.80
2023-05-22T17:38:09.688Z,19.90
2023-05-22T17:40:44.990Z,19.90
2023-05-22T17:43:13.806Z,19.90
2023-05-22T17:45:41.912Z,19.80
2023-05-22T17:48:09.276Z,19.90
2023-05-22T17:50:38.100Z,20.00
2023-05-22T17:53:05.189Z,19.90
2023-05-22T17:55:32.140Z,20.00
2023-05-22T17:57:59.798Z,19.90
2023-05-22T18:00:26.913Z,19.90
2023-05-22T18:02:54.122Z,19.80
2023-05-22T18:05:21.270Z,19.70
2023-05-22T18:07:48.879Z,19.70
2023-05-22T18:10:16.059Z,19.60
2023-05-22T18:12:43.168Z,19.50
2023-05-22T18:15:12.278Z,19.40
2023-05-22T18:17:40.071Z,19.40
2023-05-22T18:20:08.665Z,19.30
2023-05-22T18:22:37.479Z,19.20
2023-05-22T18:25:05.723Z,19.00
2023-05-22T18:27:33.461Z,18.90
2023-05-22T18:30:00.734Z,18.80
2023-05-22T18:32:27.901Z,18.70
2023-05-22T18:34:54.952Z,18.70
2023-05-22T18:37:22.037Z,18.70
2023-05-22T18:39:49.146Z,18.70
2023-05-22T18:42:17.947Z,18.70
2023-05-22T18:44:48.843Z,18.80
2023-05-22T18:47:16.400Z,18.80
2023-05-22T18:49:43.645Z,18.80
2023-05-22T18:52:10.832Z,18.80
2023-05-22T18:54:37.896Z,18.80
2023-05-22T18:57:05.140Z,18.80
2023-05-22T18:59:32.105Z,18.80
2023-05-22T19:01:59.119Z,18.90
2023-05-22T19:04:27.544Z,18.90
2023-05-22T19:06:54.518Z,18.90
2023-05-22T19:09:22.347Z,18.90
2023-05-22T19:11:49.443Z,18.90
2023-05-22T19:14:16.596Z,18.90
2023-05-22T19:16:44.148Z,18.90
2023-05-22T19:19:11.833Z,18.80
2023-05-22T19:21:39.186Z,18.80
2023-05-22T19:24:06.888Z,18.80
2023-05-22T19:26:34.295Z,18.70
2023-05-22T19:29:01.246Z,18.70
2023-05-22T19:31:29.311Z,18.70
2023-05-22T19:33:56.535Z,18.60
2023-05-22T19:36:23.683Z,18.60
2023-05-22T19:38:53.210Z,18.60
2023-05-22T19:41:20.754Z,18.50
2023-05-22T19:43:47.917Z,18.50
2023-05-22T19:46:15.043Z,18.50
2023-05-22T19:48:42.252Z,18.50
2023-05-22T19:51:09.321Z,18.50
2023-05-22T19:53:36.760Z,18.50
2023-05-22T19:56:04.308Z,18.50
2023-05-22T19:58:31.683Z,18.50
2023-05-22T20:00:59.871Z,18.50
2023-05-22T20:03:27.149Z,18.50
2023-05-22T20:05:54.545Z,18.50
2023-05-22T20:08:22.717Z,18.40
2023-05-22T20:10:49.871Z,18.40
2023-05-22T20:13:18.787Z,18.30
2023-05-22T20:15:48.000Z,18.20
2023-05-22T20:18:15.234Z,18.10
2023-05-22T20:20:43.872Z,18.00
2023-05-22T20:23:10.945Z,17.90
2023-05-22T20:25:38.243Z,17.80
2023-05-22T20:28:05.680Z,17.70
2023-05-22T20:30:32.933Z,17.60
2023-05-22T20:33:00.442Z,17.60
2023-05-22T20:35:27.666Z,17.50
2023-05-22T20:37:55.266Z,17.40
2023-05-22T20:40:22.402Z,17.40
2023-05-22T20:42:50.480Z,17.40
2023-05-22T20:45:17.629Z,17.30
2023-05-22T20:47:44.764Z,17.30
2023-05-22T20:50:12.429Z,17.30
2023-05-22T20:52:39.513Z,17.30
2023-05-22T20:55:07.516Z,17.10
2023-05-22T20:57:35.044Z,17.00
2023-05-22T21:00:05.635Z,16.80
2023-05-22T21:02:32.713Z,16.80
2023-05-22T21:05:00.148Z,16.70
2023-05-22T21:07:27.201Z,16.50
2023-05-22T21:09:54.257Z,16.40
2023-05-22T21:12:21.268Z,16.40
2023-05-22T21:14:48.345Z,16.40
2023-05-22T21:17:15.749Z,16.30
2023-05-22T21:19:42.860Z,16.20
2023-05-22T21:22:10.174Z,16.20
2023-05-22T21:24:37.189Z,16.20
2023-05-22T21:27:04.342Z,16.20
2023-05-22T21:29:31.533Z,16.20
2023-05-22T21:31:58.768Z,16.20
2023-05-22T21:34:25.818Z,16.20
2023-05-22T21:36:52.980Z,16.20
2023-05-22T21:39:20.204Z,16.20
2023-05-22T21:41:49.336Z,16.20
2023-05-22T21:44:17.179Z,16.10
2023-05-22T21:46:45.651Z,16.10
2023-05-22T21:49:12.652Z,16.10
2023-05-22T21:51:39.794Z,16.10
2023-05-22T21:54:07.166Z,16.10
2023-05-22T21:56:34.299Z,16.10
2023-05-22T21:59:01.650Z,16.10
2023-05-22T22:01:28.697Z,16.10
2023-05-22T22:03:55.916Z,16.10
2023-05-22T22:06:22.950Z,16.10
2023-05-22T22:08:49.998Z,16.00
2023-05-22T22:11:17.208Z,15.90
2023-05-22T22:13:44.534Z,15.90
2023-05-22T22:16:11.863Z,15.90
2023-05-22T22:18:39.589Z,16.00
2023-05-22T22:21:07.925Z,16.00
2023-05-22T22:23:34.902Z,16.00
2023-05-22T22:26:02.034Z,15.90
2023-05-22T22:28:29.268Z,15.80
2023-05-22T22:30:56.238Z,15.80
2023-05-22T22:33:23.261Z,15.70
2023-05-22T22:35:52.165Z,15.60
2023-05-22T22:38:19.355Z,15.50
2023-05-22T22:40:46.406Z,15.40
2023-05-22T22:43:13.351Z,15.40
2023-05-22T22:45:40.654Z,15.30
2023-05-22T22:48:08.062Z,15.20
2023-05-22T22:50:35.488Z,15.10
2023-05-22T22:53:02.532Z,15.00
2023-05-22T22:55:29.978Z,15.00
2023-05-22T22:58:00.686Z,14.90
2023-05-22T23:00:27.948Z,14.90
2023-05-22T23:02:54.997Z,14.90
2023-05-22T23:05:22.216Z,14.80
2023-05-22T23:07:49.569Z,14.80
2023-05-22T23:10:16.645Z,14.80
2023-05-22T23:12:43.838Z,14.80
2023-05-22T23:15:13.557Z,14.90
2023-05-22T23:17:41.546Z,14.80
2023-05-22T23:20:09.294Z,14.70
2023-05-22T23:22:36.336Z,14.70
2023-05-22T23:25:03.822Z,14.60
2023-05-22T23:27:31.027Z,14.60
2023-05-22T23:29:58.450Z,14.60
2023-05-22T23:32:25.521Z,14.50
2023-05-22T23:34:52.581Z,14.50
2023-05-22T23:37:19.560Z,14.40
2023-05-22T23:39:46.948Z,14.30
2023-05-22T23:42:14.180Z,14.30
2023-05-22T23:44:41.485Z,14.20
2023-05-22T23:47:08.859Z,14.20
2023-05-22T23:49:36.260Z,14.20
2023-05-22T23:52:03.533Z,14.20
2023-05-22T23:54:30.631Z,14.30
2023-05-22T23:56:57.672Z,14.40
2023-05-22T23:59:24.734Z,14.40
